sensor_id;sensor_type;location;lat;lon;timestamp;P1;durP1;ratioP1;P2;durP2;ratioP2
12848;SDS011;6493;50.928;7.172;2023-07-08T00:03:02;1.80;;;1.70;;
12848;SDS011;6493;50.928;7.172;2023-07-08T00:08:08;2.40;;;2.20;;
12848;SDS011;6493;50.928;7.172;2023-07-08T00:13:15;1.97;;;1.77;;
12848;SDS011;6493;50.928;7.172;2023-07-08T00:18:21;2.80;;;1.87;;
12848;SDS011;6493;50.928;7.172;2023-07-08T00:23:26;1.60;;;1.50;;
12848;SDS011;6493;50.928;7.172;2023-07-08T00:28:29;1.87;;;1.77;;
12848;SDS011;6493;50.928;7.172;2023-07-08T00:33:33;1.87;;;1.77;;
12848;SDS011;6493;50.928;7.172;2023-07-08T00:38:38;1.87;;;1.77;;
12848;SDS011;6493;50.928;7.172;2023-07-08T00:43:48;2.67;;;2.37;;
12848;SDS011;6493;50.928;7.172;2023-07-08T00:48:56;1.80;;;1.70;;
12848;SDS011;6493;50.928;7.172;2023-07-08T00:54:08;1.87;;;1.70;;
12848;SDS011;6493;50.928;7.172;2023-07-08T00:59:15;2.37;;;1.80;;
12848;SDS011;6493;50.928;7.172;2023-07-08T01:04:24;2.00;;;1.80;;
12848;SDS011;6493;50.928;7.172;2023-07-08T01:09:34;2.03;;;1.83;;
12848;SDS011;6493;50.928;7.172;2023-07-08T01:14:42;1.80;;;1.67;;
12848;SDS011;6493;50.928;7.172;2023-07-08T01:19:46;2.13;;;1.80;;
12848;SDS011;6493;50.928;7.172;2023-07-08T01:24:51;2.33;;;1.97;;
12848;SDS011;6493;50.928;7.172;2023-07-08T01:29:55;2.37;;;1.83;;
12848;SDS011;6493;50.928;7.172;2023-07-08T01:34:59;2.10;;;1.90;;
12848;SDS011;6493;50.928;7.172;2023-07-08T01:40:16;2.20;;;1.60;;
12848;SDS011;6493;50.928;7.172;2023-07-08T01:45:27;1.97;;;1.77;;
12848;SDS011;6493;50.928;7.172;2023-07-08T01:50:34;2.23;;;2.03;;
12848;SDS011;6493;50.928;7.172;2023-07-08T01:55:43;2.37;;;1.70;;
12848;SDS011;6493;50.928;7.172;2023-07-08T02:00:47;1.80;;;1.70;;
12848;SDS011;6493;50.928;7.172;2023-07-08T02:05:51;1.97;;;1.77;;
12848;SDS011;6493;50.928;7.172;2023-07-08T02:10:57;2.60;;;1.87;;
12848;SDS011;6493;50.928;7.172;2023-07-08T02:16:06;1.40;;;1.30;;
12848;SDS011;6493;50.928;7.172;2023-07-08T02:21:09;1.77;;;1.67;;
12848;SDS011;6493;50.928;7.172;2023-07-08T02:26:16;1.70;;;1.53;;
12848;SDS011;6493;50.928;7.172;2023-07-08T02:31:19;2.17;;;1.80;;
12848;SDS011;6493;50.928;7.172;2023-07-08T02:36:26;1.70;;;1.60;;
12848;SDS011;6493;50.928;7.172;2023-07-08T02:41:32;2.83;;;1.73;;
12848;SDS011;6493;50.928;7.172;2023-07-08T02:46:35;1.83;;;1.73;;
12848;SDS011;6493;50.928;7.172;2023-07-08T02:51:40;1.70;;;1.57;;
12848;SDS011;6493;50.928;7.172;2023-07-08T02:56:45;1.50;;;1.40;;
12848;SDS011;6493;50.928;7.172;2023-07-08T03:01:49;1.40;;;1.30;;
12848;SDS011;6493;50.928;7.172;2023-07-08T03:06:53;1.60;;;1.50;;
12848;SDS011;6493;50.928;7.172;2023-07-08T03:11:58;1.67;;;1.57;;
12848;SDS011;6493;50.928;7.172;2023-07-08T03:17:03;2.53;;;1.77;;
12848;SDS011;6493;50.928;7.172;2023-07-08T03:22:08;1.90;;;1.73;;
12848;SDS011;6493;50.928;7.172;2023-07-08T03:27:13;2.43;;;1.70;;
12848;SDS011;6493;50.928;7.172;2023-07-08T03:32:19;1.40;;;1.30;;
12848;SDS011;6493;50.928;7.172;2023-07-08T03:37:23;1.70;;;1.60;;
12848;SDS011;6493;50.928;7.172;2023-07-08T03:42:28;1.40;;;1.30;;
12848;SDS011;6493;50.928;7.172;2023-07-08T03:47:31;1.60;;;1.50;;
12848;SDS011;6493;50.928;7.172;2023-07-08T03:52:36;3.40;;;1.50;;
12848;SDS011;6493;50.928;7.172;2023-07-08T03:57:41;1.17;;;1.07;;
12848;SDS011;6493;50.928;7.172;2023-07-08T04:02:46;1.47;;;1.10;;
12848;SDS011;6493;50.928;7.172;2023-07-08T04:07:55;1.73;;;1.00;;
12848;SDS011;6493;50.928;7.172;2023-07-08T04:13:00;1.27;;;1.17;;
12848;SDS011;6493;50.928;7.172;2023-07-08T04:18:03;1.10;;;1.00;;
12848;SDS011;6493;50.928;7.172;2023-07-08T04:23:07;1.47;;;1.37;;
12848;SDS011;6493;50.928;7.172;2023-07-08T04:28:12;1.43;;;1.13;;
12848;SDS011;6493;50.928;7.172;2023-07-08T04:33:16;1.37;;;1.27;;
12848;SDS011;6493;50.928;7.172;2023-07-08T04:38:22;1.60;;;1.50;;
12848;SDS011;6493;50.928;7.172;2023-07-08T04:43:28;2.00;;;1.80;;
12848;SDS011;6493;50.928;7.172;2023-07-08T04:48:33;1.70;;;1.60;;
12848;SDS011;6493;50.928;7.172;2023-07-08T04:53:36;1.37;;;1.27;;
12848;SDS011;6493;50.928;7.172;2023-07-08T04:58:41;1.60;;;1.50;;
12848;SDS011;6493;50.928;7.172;2023-07-08T05:03:45;1.40;;;1.30;;
12848;SDS011;6493;50.928;7.172;2023-07-08T05:08:49;1.47;;;1.37;;
12848;SDS011;6493;50.928;7.172;2023-07-08T05:13:54;1.80;;;1.70;;
12848;SDS011;6493;50.928;7.172;2023-07-08T05:18:57;1.57;;;1.47;;
12848;SDS011;6493;50.928;7.172;2023-07-08T05:24:01;1.20;;;1.10;;
12848;SDS011;6493;50.928;7.172;2023-07-08T05:29:07;1.23;;;1.13;;
12848;SDS011;6493;50.928;7.172;2023-07-08T05:34:11;2.13;;;1.53;;
12848;SDS011;6493;50.928;7.172;2023-07-08T05:39:14;1.50;;;1.40;;
12848;SDS011;6493;50.928;7.172;2023-07-08T05:44:19;1.40;;;1.27;;
12848;SDS011;6493;50.928;7.172;2023-07-08T05:49:23;1.70;;;1.50;;
12848;SDS011;6493;50.928;7.172;2023-07-08T05:54:26;1.43;;;1.33;;
12848;SDS011;6493;50.928;7.172;2023-07-08T05:59:31;1.70;;;1.50;;
12848;SDS011;6493;50.928;7.172;2023-07-08T06:04:37;1.40;;;1.30;;
12848;SDS011;6493;50.928;7.172;2023-07-08T06:09:40;1.20;;;1.10;;
12848;SDS011;6493;50.928;7.172;2023-07-08T06:14:45;1.30;;;1.20;;
12848;SDS011;6493;50.928;7.172;2023-07-08T06:19:49;1.33;;;1.23;;
12848;SDS011;6493;50.928;7.172;2023-07-08T06:24:53;1.50;;;1.40;;
12848;SDS011;6493;50.928;7.172;2023-07-08T06:29:57;1.87;;;1.67;;
12848;SDS011;6493;50.928;7.172;2023-07-08T06:35:01;1.60;;;1.50;;
12848;SDS011;6493;50.928;7.172;2023-07-08T06:40:06;1.80;;;1.43;;
12848;SDS011;6493;50.928;7.172;2023-07-08T06:45:11;1.67;;;1.50;;
12848;SDS011;6493;50.928;7.172;2023-07-08T06:50:15;1.80;;;1.70;;
12848;SDS011;6493;50.928;7.172;2023-07-08T06:55:19;1.60;;;1.50;;
12848;SDS011;6493;50.928;7.172;2023-07-08T07:00:24;2.23;;;1.87;;
12848;SDS011;6493;50.928;7.172;2023-07-08T07:05:28;1.80;;;1.70;;
12848;SDS011;6493;50.928;7.172;2023-07-08T07:10:32;2.27;;;2.07;;
12848;SDS011;6493;50.928;7.172;2023-07-08T07:15:39;2.27;;;2.07;;
12848;SDS011;6493;50.928;7.172;2023-07-08T07:20:46;2.30;;;2.10;;
12848;SDS011;6493;50.928;7.172;2023-07-08T07:25:51;2.00;;;1.90;;
12848;SDS011;6493;50.928;7.172;2023-07-08T07:30:57;2.83;;;2.63;;
12848;SDS011;6493;50.928;7.172;2023-07-08T07:36:02;2.37;;;2.17;;
12848;SDS011;6493;50.928;7.172;2023-07-08T07:41:05;3.00;;;2.77;;
12848;SDS011;6493;50.928;7.172;2023-07-08T07:46:13;2.80;;;2.60;;
12848;SDS011;6493;50.928;7.172;2023-07-08T07:51:17;2.37;;;2.17;;
12848;SDS011;6493;50.928;7.172;2023-07-08T07:56:20;2.27;;;2.07;;
12848;SDS011;6493;50.928;7.172;2023-07-08T08:01:28;2.60;;;2.40;;
12848;SDS011;6493;50.928;7.172;2023-07-08T08:06:32;2.60;;;2.40;;
12848;SDS011;6493;50.928;7.172;2023-07-08T08:11:36;2.93;;;2.67;;
12848;SDS011;6493;50.928;7.172;2023-07-08T08:16:41;2.63;;;2.43;;
12848;SDS011;6493;50.928;7.172;2023-07-08T08:21:44;2.83;;;2.63;;
12848;SDS011;6493;50.928;7.172;2023-07-08T08:26:48;2.60;;;2.40;;
12848;SDS011;6493;50.928;7.172;2023-07-08T08:31:53;2.37;;;2.17;;
12848;SDS011;6493;50.928;7.172;2023-07-08T08:36:57;2.10;;;1.90;;
12848;SDS011;6493;50.928;7.172;2023-07-08T08:42:00;2.37;;;2.17;;
12848;SDS011;6493;50.928;7.172;2023-07-08T08:47:10;2.30;;;2.10;;
12848;SDS011;6493;50.928;7.172;2023-07-08T08:52:19;2.20;;;1.87;;
12848;SDS011;6493;50.928;7.172;2023-07-08T08:57:27;2.30;;;2.10;;
12848;SDS011;6493;50.928;7.172;2023-07-08T09:02:39;1.93;;;1.73;;
12848;SDS011;6493;50.928;7.172;2023-07-08T09:07:54;2.93;;;2.53;;
12848;SDS011;6493;50.928;7.172;2023-07-08T09:13:06;2.30;;;2.10;;
12848;SDS011;6493;50.928;7.172;2023-07-08T09:18:19;2.83;;;2.50;;
12848;SDS011;6493;50.928;7.172;2023-07-08T09:23:29;2.93;;;2.43;;
12848;SDS011;6493;50.928;7.172;2023-07-08T09:28:36;3.53;;;2.40;;
12848;SDS011;6493;50.928;7.172;2023-07-08T09:33:42;2.47;;;2.27;;
12848;SDS011;6493;50.928;7.172;2023-07-08T09:38:47;2.17;;;2.00;;
12848;SDS011;6493;50.928;7.172;2023-07-08T09:43:53;2.50;;;2.30;;
12848;SDS011;6493;50.928;7.172;2023-07-08T09:49:12;2.83;;;2.40;;
12848;SDS011;6493;50.928;7.172;2023-07-08T09:54:21;2.50;;;2.30;;
12848;SDS011;6493;50.928;7.172;2023-07-08T09:59:29;2.77;;;2.43;;
12848;SDS011;6493;50.928;7.172;2023-07-08T10:04:38;2.10;;;2.00;;
12848;SDS011;6493;50.928;7.172;2023-07-08T10:09:41;2.07;;;1.97;;
12848;SDS011;6493;50.928;7.172;2023-07-08T10:14:45;1.87;;;1.77;;
12848;SDS011;6493;50.928;7.172;2023-07-08T10:19:54;5.23;;;2.40;;
12848;SDS011;6493;50.928;7.172;2023-07-08T10:25:03;3.03;;;2.00;;
12848;SDS011;6493;50.928;7.172;2023-07-08T10:30:19;1.90;;;1.80;;
12848;SDS011;6493;50.928;7.172;2023-07-08T10:35:27;1.90;;;1.80;;
12848;SDS011;6493;50.928;7.172;2023-07-08T10:40:39;2.20;;;2.00;;
12848;SDS011;6493;50.928;7.172;2023-07-08T10:45:53;2.40;;;2.20;;
12848;SDS011;6493;50.928;7.172;2023-07-08T10:51:13;2.23;;;2.00;;
12848;SDS011;6493;50.928;7.172;2023-07-08T10:56:23;2.10;;;1.90;;
12848;SDS011;6493;50.928;7.172;2023-07-08T11:01:36;1.70;;;1.60;;
12848;SDS011;6493;50.928;7.172;2023-07-08T11:06:50;2.30;;;1.90;;
12848;SDS011;6493;50.928;7.172;2023-07-08T11:11:59;2.03;;;1.83;;
12848;SDS011;6493;50.928;7.172;2023-07-08T11:17:08;2.00;;;1.90;;
12848;SDS011;6493;50.928;7.172;2023-07-08T11:22:22;1.70;;;1.60;;
12848;SDS011;6493;50.928;7.172;2023-07-08T11:27:26;1.70;;;1.60;;
12848;SDS011;6493;50.928;7.172;2023-07-08T11:32:33;1.97;;;1.87;;
12848;SDS011;6493;50.928;7.172;2023-07-08T11:37:39;2.43;;;1.80;;
12848;SDS011;6493;50.928;7.172;2023-07-08T11:42:44;2.20;;;2.00;;
12848;SDS011;6493;50.928;7.172;2023-07-08T11:48:05;2.30;;;1.93;;
12848;SDS011;6493;50.928;7.172;2023-07-08T11:53:30;3.13;;;2.60;;
12848;SDS011;6493;50.928;7.172;2023-07-08T11:58:50;2.50;;;2.27;;
12848;SDS011;6493;50.928;7.172;2023-07-08T12:04:16;2.17;;;1.80;;
12848;SDS011;6493;50.928;7.172;2023-07-08T12:09:34;2.20;;;2.00;;
12848;SDS011;6493;50.928;7.172;2023-07-08T12:14:40;2.57;;;2.20;;
12848;SDS011;6493;50.928;7.172;2023-07-08T12:19:44;2.17;;;1.97;;
12848;SDS011;6493;50.928;7.172;2023-07-08T12:24:53;2.07;;;1.67;;
12848;SDS011;6493;50.928;7.172;2023-07-08T12:29:57;2.40;;;2.20;;
12848;SDS011;6493;50.928;7.172;2023-07-08T12:35:02;2.30;;;2.10;;
12848;SDS011;6493;50.928;7.172;2023-07-08T12:40:10;2.17;;;1.97;;
12848;SDS011;6493;50.928;7.172;2023-07-08T12:45:15;2.30;;;2.10;;
12848;SDS011;6493;50.928;7.172;2023-07-08T12:50:21;2.93;;;2.10;;
12848;SDS011;6493;50.928;7.172;2023-07-08T12:55:26;2.30;;;2.10;;
12848;SDS011;6493;50.928;7.172;2023-07-08T13:00:30;2.40;;;2.20;;
12848;SDS011;6493;50.928;7.172;2023-07-08T13:05:37;2.63;;;2.33;;
12848;SDS011;6493;50.928;7.172;2023-07-08T13:10:44;2.53;;;2.33;;
12848;SDS011;6493;50.928;7.172;2023-07-08T13:15:49;2.73;;;2.53;;
12848;SDS011;6493;50.928;7.172;2023-07-08T13:20:54;4.37;;;2.70;;
12848;SDS011;6493;50.928;7.172;2023-07-08T13:26:00;3.10;;;2.83;;
12848;SDS011;6493;50.928;7.172;2023-07-08T13:31:15;2.70;;;2.50;;
12848;SDS011;6493;50.928;7.172;2023-07-08T13:36:31;2.90;;;2.20;;
12848;SDS011;6493;50.928;7.172;2023-07-08T13:41:41;2.97;;;2.43;;
12848;SDS011;6493;50.928;7.172;2023-07-08T13:46:49;2.57;;;2.37;;
12848;SDS011;6493;50.928;7.172;2023-07-08T13:52:04;2.77;;;2.53;;
12848;SDS011;6493;50.928;7.172;2023-07-08T13:57:12;2.50;;;2.30;;
12848;SDS011;6493;50.928;7.172;2023-07-08T14:02:19;2.50;;;2.30;;
12848;SDS011;6493;50.928;7.172;2023-07-08T14:07:31;2.40;;;2.20;;
12848;SDS011;6493;50.928;7.172;2023-07-08T14:12:37;2.40;;;2.20;;
12848;SDS011;6493;50.928;7.172;2023-07-08T14:17:41;3.17;;;2.77;;
12848;SDS011;6493;50.928;7.172;2023-07-08T14:22:45;2.33;;;2.13;;
12848;SDS011;6493;50.928;7.172;2023-07-08T14:27:50;2.70;;;2.50;;
12848;SDS011;6493;50.928;7.172;2023-07-08T14:32:54;2.50;;;2.30;;
12848;SDS011;6493;50.928;7.172;2023-07-08T14:37:58;2.37;;;2.17;;
12848;SDS011;6493;50.928;7.172;2023-07-08T14:43:04;2.70;;;2.43;;
12848;SDS011;6493;50.928;7.172;2023-07-08T14:48:10;2.20;;;2.00;;
12848;SDS011;6493;50.928;7.172;2023-07-08T14:53:18;2.70;;;2.37;;
12848;SDS011;6493;50.928;7.172;2023-07-08T14:58:25;2.30;;;2.10;;
12848;SDS011;6493;50.928;7.172;2023-07-08T15:03:30;2.77;;;1.90;;
12848;SDS011;6493;50.928;7.172;2023-07-08T15:08:34;2.00;;;1.90;;
12848;SDS011;6493;50.928;7.172;2023-07-08T15:13:39;2.40;;;2.20;;
12848;SDS011;6493;50.928;7.172;2023-07-08T15:18:45;3.17;;;2.30;;
12848;SDS011;6493;50.928;7.172;2023-07-08T15:23:49;2.87;;;2.50;;
12848;SDS011;6493;50.928;7.172;2023-07-08T15:28:54;2.93;;;2.60;;
12848;SDS011;6493;50.928;7.172;2023-07-08T15:33:58;3.40;;;2.77;;
12848;SDS011;6493;50.928;7.172;2023-07-08T15:39:02;2.47;;;2.13;;
12848;SDS011;6493;50.928;7.172;2023-07-08T15:44:09;2.07;;;1.80;;
12848;SDS011;6493;50.928;7.172;2023-07-08T15:49:14;4.77;;;1.90;;
12848;SDS011;6493;50.928;7.172;2023-07-08T15:54:19;2.00;;;1.80;;
12848;SDS011;6493;50.928;7.172;2023-07-08T15:59:25;4.20;;;2.40;;
12848;SDS011;6493;50.928;7.172;2023-07-08T16:04:32;4.53;;;2.40;;
12848;SDS011;6493;50.928;7.172;2023-07-08T16:09:38;2.30;;;2.10;;
12848;SDS011;6493;50.928;7.172;2023-07-08T16:14:43;2.97;;;1.90;;
12848;SDS011;6493;50.928;7.172;2023-07-08T16:19:47;2.30;;;2.10;;
12848;SDS011;6493;50.928;7.172;2023-07-08T16:24:50;2.00;;;1.80;;
12848;SDS011;6493;50.928;7.172;2023-07-08T16:29:55;2.13;;;1.93;;
12848;SDS011;6493;50.928;7.172;2023-07-08T16:34:59;2.40;;;2.20;;
12848;SDS011;6493;50.928;7.172;2023-07-08T16:40:03;1.97;;;1.87;;
12848;SDS011;6493;50.928;7.172;2023-07-08T16:45:11;2.30;;;2.10;;
12848;SDS011;6493;50.928;7.172;2023-07-08T16:50:16;2.20;;;2.00;;
12848;SDS011;6493;50.928;7.172;2023-07-08T16:55:24;2.17;;;1.97;;
12848;SDS011;6493;50.928;7.172;2023-07-08T17:00:29;2.17;;;1.97;;
12848;SDS011;6493;50.928;7.172;2023-07-08T17:05:34;1.73;;;1.60;;
12848;SDS011;6493;50.928;7.172;2023-07-08T17:10:38;1.50;;;1.40;;
12848;SDS011;6493;50.928;7.172;2023-07-08T17:15:43;1.40;;;1.30;;
12848;SDS011;6493;50.928;7.172;2023-07-08T17:20:48;1.73;;;1.43;;
12848;SDS011;6493;50.928;7.172;2023-07-08T17:25:53;1.50;;;1.40;;
12848;SDS011;6493;50.928;7.172;2023-07-08T17:30:58;1.70;;;1.60;;
12848;SDS011;6493;50.928;7.172;2023-07-08T17:36:07;1.40;;;1.30;;
12848;SDS011;6493;50.928;7.172;2023-07-08T17:41:13;2.53;;;1.90;;
12848;SDS011;6493;50.928;7.172;2023-07-08T17:46:20;3.10;;;2.80;;
12848;SDS011;6493;50.928;7.172;2023-07-08T17:51:27;2.60;;;2.40;;
12848;SDS011;6493;50.928;7.172;2023-07-08T17:56:32;2.17;;;1.97;;
12848;SDS011;6493;50.928;7.172;2023-07-08T18:01:40;2.37;;;2.17;;
12848;SDS011;6493;50.928;7.172;2023-07-08T18:06:44;2.20;;;1.67;;
12848;SDS011;6493;50.928;7.172;2023-07-08T18:11:47;1.00;;;0.90;;
12848;SDS011;6493;50.928;7.172;2023-07-08T18:16:53;1.20;;;1.10;;
12848;SDS011;6493;50.928;7.172;2023-07-08T18:21:57;1.03;;;1.03;;
12848;SDS011;6493;50.928;7.172;2023-07-08T18:27:06;0.80;;;0.80;;
12848;SDS011;6493;50.928;7.172;2023-07-08T18:32:12;1.27;;;1.17;;
12848;SDS011;6493;50.928;7.172;2023-07-08T18:37:16;1.67;;;1.30;;
12848;SDS011;6493;50.928;7.172;2023-07-08T18:42:20;1.40;;;1.30;;
12848;SDS011;6493;50.928;7.172;2023-07-08T18:47:25;3.30;;;1.77;;
12848;SDS011;6493;50.928;7.172;2023-07-08T18:52:29;1.83;;;1.50;;
12848;SDS011;6493;50.928;7.172;2023-07-08T18:57:32;1.70;;;1.40;;
12848;SDS011;6493;50.928;7.172;2023-07-08T19:02:39;1.30;;;1.20;;
12848;SDS011;6493;50.928;7.172;2023-07-08T19:07:49;0.90;;;0.90;;
12848;SDS011;6493;50.928;7.172;2023-07-08T19:12:54;1.17;;;1.07;;
12848;SDS011;6493;50.928;7.172;2023-07-08T19:17:59;1.17;;;1.07;;
12848;SDS011;6493;50.928;7.172;2023-07-08T19:23:03;1.87;;;1.40;;
12848;SDS011;6493;50.928;7.172;2023-07-08T19:28:12;1.73;;;1.50;;
12848;SDS011;6493;50.928;7.172;2023-07-08T19:33:17;1.77;;;1.43;;
12848;SDS011;6493;50.928;7.172;2023-07-08T19:38:20;1.50;;;1.23;;
12848;SDS011;6493;50.928;7.172;2023-07-08T19:43:25;1.83;;;1.67;;
12848;SDS011;6493;50.928;7.172;2023-07-08T19:48:30;1.80;;;1.70;;
12848;SDS011;6493;50.928;7.172;2023-07-08T19:53:33;1.50;;;1.40;;
12848;SDS011;6493;50.928;7.172;2023-07-08T19:58:39;1.37;;;1.27;;
12848;SDS011;6493;50.928;7.172;2023-07-08T20:03:44;2.00;;;1.53;;
12848;SDS011;6493;50.928;7.172;2023-07-08T20:08:48;1.57;;;1.40;;
12848;SDS011;6493;50.928;7.172;2023-07-08T20:13:53;2.07;;;1.87;;
12848;SDS011;6493;50.928;7.172;2023-07-08T20:18:58;1.53;;;1.40;;
12848;SDS011;6493;50.928;7.172;2023-07-08T20:24:02;2.13;;;1.83;;
12848;SDS011;6493;50.928;7.172;2023-07-08T20:29:08;2.37;;;1.80;;
12848;SDS011;6493;50.928;7.172;2023-07-08T20:34:19;1.80;;;1.70;;
12848;SDS011;6493;50.928;7.172;2023-07-08T20:39:22;2.17;;;1.87;;
12848;SDS011;6493;50.928;7.172;2023-07-08T20:44:30;3.03;;;2.30;;
12848;SDS011;6493;50.928;7.172;2023-07-08T20:49:35;2.50;;;2.30;;
12848;SDS011;6493;50.928;7.172;2023-07-08T20:54:39;2.47;;;1.90;;
12848;SDS011;6493;50.928;7.172;2023-07-08T20:59:42;2.10;;;1.90;;
12848;SDS011;6493;50.928;7.172;2023-07-08T21:04:47;1.70;;;1.60;;
12848;SDS011;6493;50.928;7.172;2023-07-08T21:09:51;2.30;;;2.00;;
12848;SDS011;6493;50.928;7.172;2023-07-08T21:14:54;1.83;;;1.63;;
12848;SDS011;6493;50.928;7.172;2023-07-08T21:19:59;2.10;;;1.90;;
12848;SDS011;6493;50.928;7.172;2023-07-08T21:25:03;2.20;;;1.63;;
12848;SDS011;6493;50.928;7.172;2023-07-08T21:30:10;2.03;;;1.83;;
12848;SDS011;6493;50.928;7.172;2023-07-08T21:35:21;2.27;;;1.53;;
12848;SDS011;6493;50.928;7.172;2023-07-08T21:40:29;2.50;;;1.60;;
12848;SDS011;6493;50.928;7.172;2023-07-08T21:45:37;1.50;;;1.40;;
12848;SDS011;6493;50.928;7.172;2023-07-08T21:50:43;2.23;;;1.40;;
12848;SDS011;6493;50.928;7.172;2023-07-08T21:55:49;1.97;;;1.50;;
12848;SDS011;6493;50.928;7.172;2023-07-08T22:00:53;1.40;;;1.30;;
12848;SDS011;6493;50.928;7.172;2023-07-08T22:05:59;1.60;;;1.40;;
12848;SDS011;6493;50.928;7.172;2023-07-08T22:11:05;1.40;;;1.30;;
12848;SDS011;6493;50.928;7.172;2023-07-08T22:16:17;1.37;;;1.27;;
12848;SDS011;6493;50.928;7.172;2023-07-08T22:21:26;1.53;;;1.13;;
12848;SDS011;6493;50.928;7.172;2023-07-08T22:26:33;1.57;;;1.47;;
12848;SDS011;6493;50.928;7.172;2023-07-08T22:31:42;1.60;;;1.17;;
12848;SDS011;6493;50.928;7.172;2023-07-08T22:36:48;1.30;;;1.20;;
12848;SDS011;6493;50.928;7.172;2023-07-08T22:41:52;1.43;;;1.30;;
12848;SDS011;6493;50.928;7.172;2023-07-08T22:46:56;1.20;;;1.10;;
12848;SDS011;6493;50.928;7.172;2023-07-08T22:52:04;1.50;;;1.10;;
12848;SDS011;6493;50.928;7.172;2023-07-08T22:57:08;1.40;;;1.30;;
12848;SDS011;6493;50.928;7.172;2023-07-08T23:02:12;1.30;;;1.20;;
12848;SDS011;6493;50.928;7.172;2023-07-08T23:07:17;1.03;;;0.93;;
12848;SDS011;6493;50.928;7.172;2023-07-08T23:12:22;1.40;;;1.30;;
12848;SDS011;6493;50.928;7.172;2023-07-08T23:17:25;1.20;;;1.10;;
12848;SDS011;6493;50.928;7.172;2023-07-08T23:22:30;1.23;;;1.13;;
12848;SDS011;6493;50.928;7.172;2023-07-08T23:27:34;1.70;;;1.13;;
12848;SDS011;6493;50.928;7.172;2023-07-08T23:32:39;0.90;;;0.90;;
12848;SDS011;6493;50.928;7.172;2023-07-08T23:37:44;1.27;;;1.10;;
12848;SDS011;6493;50.928;7.172;2023-07-08T23:42:48;1.00;;;0.93;;
12848;SDS011;6493;50.928;7.172;2023-07-08T23:47:52;0.90;;;0.90;;
12848;SDS011;6493;50.928;7.172;2023-07-08T23:53:01;1.20;;;1.10;;
12848;SDS011;6493;50.928;7.172;2023-07-08T23:58:06;1.23;;;1.07;;
